sensor_id;sensor_type;location;lat;lon;timestamp;P1;durP1;ratioP1;P2;durP2;ratioP2
10651;SDS011;5374;42.742;23.266;2023-07-20T00:02:05;5.70;;;2.77;;
10651;SDS011;5374;42.742;23.266;2023-07-20T00:04:54;5.90;;;2.70;;
10651;SDS011;5374;42.742;23.266;2023-07-20T00:07:43;7.67;;;2.80;;
10651;SDS011;5374;42.742;23.266;2023-07-20T00:10:32;5.57;;;2.40;;
10651;SDS011;5374;42.742;23.266;2023-07-20T00:13:19;7.83;;;2.80;;
10651;SDS011;5374;42.742;23.266;2023-07-20T00:16:06;7.10;;;2.57;;
10651;SDS011;5374;42.742;23.266;2023-07-20T00:18:54;8.47;;;2.83;;
10651;SDS011;5374;42.742;23.266;2023-07-20T00:21:42;6.07;;;2.70;;
10651;SDS011;5374;42.742;23.266;2023-07-20T00:24:30;7.10;;;2.73;;
10651;SDS011;5374;42.742;23.266;2023-07-20T00:27:18;11.10;;;2.70;;
10651;SDS011;5374;42.742;23.266;2023-07-20T00:30:05;11.27;;;2.77;;
10651;SDS011;5374;42.742;23.266;2023-07-20T00:32:53;7.23;;;2.83;;
10651;SDS011;5374;42.742;23.266;2023-07-20T00:35:40;7.47;;;2.73;;
10651;SDS011;5374;42.742;23.266;2023-07-20T00:38:29;8.07;;;2.63;;
10651;SDS011;5374;42.742;23.266;2023-07-20T00:41:16;4.53;;;2.50;;
10651;SDS011;5374;42.742;23.266;2023-07-20T00:44:04;9.60;;;2.93;;
10651;SDS011;5374;42.742;23.266;2023-07-20T00:46:51;7.13;;;2.80;;
10651;SDS011;5374;42.742;23.266;2023-07-20T00:49:38;7.10;;;2.60;;
10651;SDS011;5374;42.742;23.266;2023-07-20T00:52:26;8.87;;;2.77;;
10651;SDS011;5374;42.742;23.266;2023-07-20T00:55:15;10.70;;;2.93;;
10651;SDS011;5374;42.742;23.266;2023-07-20T00:58:03;7.80;;;2.70;;
10651;SDS011;5374;42.742;23.266;2023-07-20T01:00:51;6.63;;;2.60;;
10651;SDS011;5374;42.742;23.266;2023-07-20T01:03:38;5.63;;;2.63;;
10651;SDS011;5374;42.742;23.266;2023-07-20T01:06:27;10.03;;;2.80;;
10651;SDS011;5374;42.742;23.266;2023-07-20T01:09:19;5.90;;;2.60;;
10651;SDS011;5374;42.742;23.266;2023-07-20T01:12:12;6.97;;;3.10;;
10651;SDS011;5374;42.742;23.266;2023-07-20T01:15:05;9.47;;;3.43;;
10651;SDS011;5374;42.742;23.266;2023-07-20T01:17:53;7.00;;;2.83;;
10651;SDS011;5374;42.742;23.266;2023-07-20T01:20:40;7.33;;;2.77;;
10651;SDS011;5374;42.742;23.266;2023-07-20T01:23:32;9.23;;;2.90;;
10651;SDS011;5374;42.742;23.266;2023-07-20T01:26:55;7.47;;;2.43;;
10651;SDS011;5374;42.742;23.266;2023-07-20T01:30:07;5.73;;;2.50;;
10651;SDS011;5374;42.742;23.266;2023-07-20T01:33:04;10.73;;;2.87;;
10651;SDS011;5374;42.742;23.266;2023-07-20T01:35:54;9.40;;;2.90;;
10651;SDS011;5374;42.742;23.266;2023-07-20T01:38:44;8.20;;;3.03;;
10651;SDS011;5374;42.742;23.266;2023-07-20T01:41:31;10.87;;;2.73;;
10651;SDS011;5374;42.742;23.266;2023-07-20T01:44:19;6.17;;;2.60;;
10651;SDS011;5374;42.742;23.266;2023-07-20T01:47:07;7.23;;;2.90;;
10651;SDS011;5374;42.742;23.266;2023-07-20T01:49:56;6.73;;;3.13;;
10651;SDS011;5374;42.742;23.266;2023-07-20T01:52:43;7.93;;;2.80;;
10651;SDS011;5374;42.742;23.266;2023-07-20T01:55:30;6.87;;;3.00;;
10651;SDS011;5374;42.742;23.266;2023-07-20T01:58:17;7.13;;;2.80;;
10651;SDS011;5374;42.742;23.266;2023-07-20T02:01:04;5.90;;;2.77;;
10651;SDS011;5374;42.742;23.266;2023-07-20T02:03:51;5.27;;;2.70;;
10651;SDS011;5374;42.742;23.266;2023-07-20T02:06:40;6.83;;;2.90;;
10651;SDS011;5374;42.742;23.266;2023-07-20T02:09:28;5.80;;;3.00;;
10651;SDS011;5374;42.742;23.266;2023-07-20T02:12:15;6.03;;;3.00;;
10651;SDS011;5374;42.742;23.266;2023-07-20T02:15:02;6.90;;;2.73;;
10651;SDS011;5374;42.742;23.266;2023-07-20T02:17:50;6.17;;;3.03;;
10651;SDS011;5374;42.742;23.266;2023-07-20T02:20:37;5.73;;;2.90;;
10651;SDS011;5374;42.742;23.266;2023-07-20T02:23:25;7.37;;;3.30;;
10651;SDS011;5374;42.742;23.266;2023-07-20T02:26:12;8.53;;;3.13;;
10651;SDS011;5374;42.742;23.266;2023-07-20T02:29:00;8.50;;;3.00;;
10651;SDS011;5374;42.742;23.266;2023-07-20T02:31:50;7.90;;;2.90;;
10651;SDS011;5374;42.742;23.266;2023-07-20T02:34:37;7.60;;;3.00;;
10651;SDS011;5374;42.742;23.266;2023-07-20T02:37:24;7.90;;;3.37;;
10651;SDS011;5374;42.742;23.266;2023-07-20T02:40:13;8.00;;;3.23;;
10651;SDS011;5374;42.742;23.266;2023-07-20T02:43:00;7.13;;;3.23;;
10651;SDS011;5374;42.742;23.266;2023-07-20T02:45:47;6.77;;;3.30;;
10651;SDS011;5374;42.742;23.266;2023-07-20T02:48:34;9.43;;;3.20;;
10651;SDS011;5374;42.742;23.266;2023-07-20T02:51:21;9.00;;;3.60;;
10651;SDS011;5374;42.742;23.266;2023-07-20T02:54:08;13.07;;;4.03;;
10651;SDS011;5374;42.742;23.266;2023-07-20T02:56:57;11.63;;;3.40;;
10651;SDS011;5374;42.742;23.266;2023-07-20T02:59:44;10.30;;;3.30;;
10651;SDS011;5374;42.742;23.266;2023-07-20T03:02:32;12.60;;;3.50;;
10651;SDS011;5374;42.742;23.266;2023-07-20T03:05:19;8.27;;;3.60;;
10651;SDS011;5374;42.742;23.266;2023-07-20T03:08:06;8.87;;;3.53;;
10651;SDS011;5374;42.742;23.266;2023-07-20T03:10:54;7.97;;;3.57;;
10651;SDS011;5374;42.742;23.266;2023-07-20T03:13:42;7.97;;;3.83;;
10651;SDS011;5374;42.742;23.266;2023-07-20T03:16:29;9.93;;;3.60;;
10651;SDS011;5374;42.742;23.266;2023-07-20T03:19:18;8.60;;;3.60;;
10651;SDS011;5374;42.742;23.266;2023-07-20T03:22:05;9.30;;;3.70;;
10651;SDS011;5374;42.742;23.266;2023-07-20T03:24:52;9.10;;;3.93;;
10651;SDS011;5374;42.742;23.266;2023-07-20T03:27:39;8.13;;;3.90;;
10651;SDS011;5374;42.742;23.266;2023-07-20T03:30:28;9.23;;;3.63;;
10651;SDS011;5374;42.742;23.266;2023-07-20T03:33:15;6.83;;;3.50;;
10651;SDS011;5374;42.742;23.266;2023-07-20T03:36:02;5.87;;;3.57;;
10651;SDS011;5374;42.742;23.266;2023-07-20T03:38:50;7.20;;;3.67;;
10651;SDS011;5374;42.742;23.266;2023-07-20T03:41:37;7.87;;;3.57;;
10651;SDS011;5374;42.742;23.266;2023-07-20T03:44:24;11.37;;;3.80;;
10651;SDS011;5374;42.742;23.266;2023-07-20T03:47:13;8.33;;;3.30;;
10651;SDS011;5374;42.742;23.266;2023-07-20T03:50:01;9.17;;;3.97;;
10651;SDS011;5374;42.742;23.266;2023-07-20T03:52:48;10.80;;;4.10;;
10651;SDS011;5374;42.742;23.266;2023-07-20T03:55:35;8.37;;;3.80;;
10651;SDS011;5374;42.742;23.266;2023-07-20T03:58:23;7.10;;;3.63;;
10651;SDS011;5374;42.742;23.266;2023-07-20T04:01:10;7.30;;;3.53;;
10651;SDS011;5374;42.742;23.266;2023-07-20T04:04:00;11.33;;;3.93;;
10651;SDS011;5374;42.742;23.266;2023-07-20T04:06:47;6.37;;;3.80;;
10651;SDS011;5374;42.742;23.266;2023-07-20T04:09:34;8.97;;;3.90;;
10651;SDS011;5374;42.742;23.266;2023-07-20T04:12:21;8.73;;;4.07;;
10651;SDS011;5374;42.742;23.266;2023-07-20T04:15:08;10.30;;;4.27;;
10651;SDS011;5374;42.742;23.266;2023-07-20T04:17:56;8.07;;;4.00;;
10651;SDS011;5374;42.742;23.266;2023-07-20T04:20:44;7.83;;;3.83;;
10651;SDS011;5374;42.742;23.266;2023-07-20T04:23:32;12.07;;;3.93;;
10651;SDS011;5374;42.742;23.266;2023-07-20T04:26:20;8.50;;;4.13;;
10651;SDS011;5374;42.742;23.266;2023-07-20T04:29:08;15.47;;;4.33;;
10651;SDS011;5374;42.742;23.266;2023-07-20T04:31:55;8.97;;;4.20;;
10651;SDS011;5374;42.742;23.266;2023-07-20T04:34:42;9.63;;;4.03;;
10651;SDS011;5374;42.742;23.266;2023-07-20T04:37:31;12.50;;;4.20;;
10651;SDS011;5374;42.742;23.266;2023-07-20T04:40:19;11.87;;;4.83;;
10651;SDS011;5374;42.742;23.266;2023-07-20T04:43:07;6.93;;;3.77;;
10651;SDS011;5374;42.742;23.266;2023-07-20T04:45:54;11.73;;;4.67;;
10651;SDS011;5374;42.742;23.266;2023-07-20T04:48:41;9.73;;;4.40;;
10651;SDS011;5374;42.742;23.266;2023-07-20T04:51:28;11.67;;;4.57;;
10651;SDS011;5374;42.742;23.266;2023-07-20T04:54:17;9.87;;;4.97;;
10651;SDS011;5374;42.742;23.266;2023-07-20T04:57:05;15.00;;;4.90;;
10651;SDS011;5374;42.742;23.266;2023-07-20T04:59:58;13.37;;;4.77;;
10651;SDS011;5374;42.742;23.266;2023-07-20T05:02:45;14.13;;;4.47;;
10651;SDS011;5374;42.742;23.266;2023-07-20T05:05:34;12.47;;;4.60;;
10651;SDS011;5374;42.742;23.266;2023-07-20T05:08:22;13.83;;;4.50;;
10651;SDS011;5374;42.742;23.266;2023-07-20T05:11:11;14.73;;;4.60;;
10651;SDS011;5374;42.742;23.266;2023-07-20T05:13:59;23.83;;;4.93;;
10651;SDS011;5374;42.742;23.266;2023-07-20T05:16:46;10.57;;;4.37;;
10651;SDS011;5374;42.742;23.266;2023-07-20T05:19:33;15.15;;;5.07;;
10651;SDS011;5374;42.742;23.266;2023-07-20T05:22:21;13.02;;;5.10;;
10651;SDS011;5374;42.742;23.266;2023-07-20T05:25:09;9.57;;;4.47;;
10651;SDS011;5374;42.742;23.266;2023-07-20T05:27:58;11.88;;;4.63;;
10651;SDS011;5374;42.742;23.266;2023-07-20T05:30:46;17.55;;;5.03;;
10651;SDS011;5374;42.742;23.266;2023-07-20T05:33:33;13.50;;;4.57;;
10651;SDS011;5374;42.742;23.266;2023-07-20T05:36:20;9.73;;;4.28;;
10651;SDS011;5374;42.742;23.266;2023-07-20T05:39:07;10.32;;;4.25;;
10651;SDS011;5374;42.742;23.266;2023-07-20T05:41:54;8.80;;;4.68;;
10651;SDS011;5374;42.742;23.266;2023-07-20T05:44:43;12.32;;;5.10;;
10651;SDS011;5374;42.742;23.266;2023-07-20T05:47:30;12.65;;;5.03;;
10651;SDS011;5374;42.742;23.266;2023-07-20T05:50:20;14.63;;;4.63;;
10651;SDS011;5374;42.742;23.266;2023-07-20T05:53:07;14.20;;;5.40;;
10651;SDS011;5374;42.742;23.266;2023-07-20T05:55:54;9.13;;;4.43;;
10651;SDS011;5374;42.742;23.266;2023-07-20T05:58:41;11.23;;;4.85;;
10651;SDS011;5374;42.742;23.266;2023-07-20T06:01:30;21.83;;;5.05;;
10651;SDS011;5374;42.742;23.266;2023-07-20T06:04:17;10.10;;;4.72;;
10651;SDS011;5374;42.742;23.266;2023-07-20T06:07:04;11.48;;;4.60;;
10651;SDS011;5374;42.742;23.266;2023-07-20T06:09:53;11.15;;;5.15;;
10651;SDS011;5374;42.742;23.266;2023-07-20T06:12:40;12.70;;;4.22;;
10651;SDS011;5374;42.742;23.266;2023-07-20T06:15:28;9.70;;;4.20;;
10651;SDS011;5374;42.742;23.266;2023-07-20T06:18:19;9.27;;;4.10;;
10651;SDS011;5374;42.742;23.266;2023-07-20T06:21:06;9.32;;;4.57;;
10651;SDS011;5374;42.742;23.266;2023-07-20T06:23:54;11.68;;;4.45;;
10651;SDS011;5374;42.742;23.266;2023-07-20T06:26:41;9.88;;;4.40;;
10651;SDS011;5374;42.742;23.266;2023-07-20T06:29:28;10.02;;;4.20;;
10651;SDS011;5374;42.742;23.266;2023-07-20T06:32:15;9.38;;;4.38;;
10651;SDS011;5374;42.742;23.266;2023-07-20T06:35:04;8.50;;;3.38;;
10651;SDS011;5374;42.742;23.266;2023-07-20T06:37:52;11.23;;;3.88;;
10651;SDS011;5374;42.742;23.266;2023-07-20T06:40:39;11.93;;;4.03;;
10651;SDS011;5374;42.742;23.266;2023-07-20T06:43:26;10.50;;;4.00;;
10651;SDS011;5374;42.742;23.266;2023-07-20T06:46:14;9.05;;;3.83;;
10651;SDS011;5374;42.742;23.266;2023-07-20T06:49:01;8.68;;;4.15;;
10651;SDS011;5374;42.742;23.266;2023-07-20T06:51:49;9.15;;;4.07;;
10651;SDS011;5374;42.742;23.266;2023-07-20T06:54:36;10.45;;;3.88;;
10651;SDS011;5374;42.742;23.266;2023-07-20T06:57:24;9.35;;;4.30;;
10651;SDS011;5374;42.742;23.266;2023-07-20T07:00:13;12.48;;;4.38;;
10651;SDS011;5374;42.742;23.266;2023-07-20T07:03:01;9.15;;;3.88;;
10651;SDS011;5374;42.742;23.266;2023-07-20T07:05:48;11.55;;;4.43;;
10651;SDS011;5374;42.742;23.266;2023-07-20T07:08:36;10.75;;;4.07;;
10651;SDS011;5374;42.742;23.266;2023-07-20T07:11:24;16.58;;;4.60;;
10651;SDS011;5374;42.742;23.266;2023-07-20T07:14:11;9.57;;;4.15;;
10651;SDS011;5374;42.742;23.266;2023-07-20T07:16:58;9.03;;;3.80;;
10651;SDS011;5374;42.742;23.266;2023-07-20T07:19:46;8.50;;;3.90;;
10651;SDS011;5374;42.742;23.266;2023-07-20T07:22:33;23.07;;;4.40;;
10651;SDS011;5374;42.742;23.266;2023-07-20T07:25:22;9.02;;;4.20;;
10651;SDS011;5374;42.742;23.266;2023-07-20T07:28:09;13.10;;;4.15;;
10651;SDS011;5374;42.742;23.266;2023-07-20T07:30:56;8.40;;;3.72;;
10651;SDS011;5374;42.742;23.266;2023-07-20T07:33:43;12.07;;;4.28;;
10651;SDS011;5374;42.742;23.266;2023-07-20T07:36:30;12.00;;;4.22;;
10651;SDS011;5374;42.742;23.266;2023-07-20T07:39:18;13.57;;;4.43;;
10651;SDS011;5374;42.742;23.266;2023-07-20T07:42:06;12.32;;;4.35;;
10651;SDS011;5374;42.742;23.266;2023-07-20T07:44:53;10.68;;;4.90;;
10651;SDS011;5374;42.742;23.266;2023-07-20T07:47:41;11.00;;;4.50;;
10651;SDS011;5374;42.742;23.266;2023-07-20T07:50:28;10.80;;;4.32;;
10651;SDS011;5374;42.742;23.266;2023-07-20T07:53:15;21.67;;;5.63;;
10651;SDS011;5374;42.742;23.266;2023-07-20T07:56:02;15.85;;;4.35;;
10651;SDS011;5374;42.742;23.266;2023-07-20T07:58:51;12.50;;;4.18;;
10651;SDS011;5374;42.742;23.266;2023-07-20T08:01:38;6.88;;;3.75;;
10651;SDS011;5374;42.742;23.266;2023-07-20T08:04:25;12.15;;;4.20;;
10651;SDS011;5374;42.742;23.266;2023-07-20T08:07:12;12.60;;;4.13;;
10651;SDS011;5374;42.742;23.266;2023-07-20T08:09:59;31.75;;;5.70;;
10651;SDS011;5374;42.742;23.266;2023-07-20T08:12:47;13.35;;;4.20;;
10651;SDS011;5374;42.742;23.266;2023-07-20T08:15:36;12.55;;;3.70;;
10651;SDS011;5374;42.742;23.266;2023-07-20T08:18:23;14.18;;;4.20;;
10651;SDS011;5374;42.742;23.266;2023-07-20T08:21:11;37.00;;;7.85;;
10651;SDS011;5374;42.742;23.266;2023-07-20T08:23:58;13.70;;;4.30;;
10651;SDS011;5374;42.742;23.266;2023-07-20T08:26:45;14.52;;;4.43;;
10651;SDS011;5374;42.742;23.266;2023-07-20T08:29:32;10.80;;;3.93;;
10651;SDS011;5374;42.742;23.266;2023-07-20T08:32:21;19.57;;;4.27;;
10651;SDS011;5374;42.742;23.266;2023-07-20T08:35:08;7.60;;;3.20;;
10651;SDS011;5374;42.742;23.266;2023-07-20T08:37:55;12.80;;;4.00;;
10651;SDS011;5374;42.742;23.266;2023-07-20T08:40:43;11.13;;;3.97;;
10651;SDS011;5374;42.742;23.266;2023-07-20T08:43:31;13.13;;;3.60;;
10651;SDS011;5374;42.742;23.266;2023-07-20T08:46:20;10.57;;;3.70;;
10651;SDS011;5374;42.742;23.266;2023-07-20T08:49:11;10.27;;;3.15;;
10651;SDS011;5374;42.742;23.266;2023-07-20T08:51:58;9.40;;;3.10;;
10651;SDS011;5374;42.742;23.266;2023-07-20T08:54:46;9.35;;;4.28;;
10651;SDS011;5374;42.742;23.266;2023-07-20T08:57:35;10.33;;;2.80;;
10651;SDS011;5374;42.742;23.266;2023-07-20T09:00:23;5.70;;;2.80;;
10651;SDS011;5374;42.742;23.266;2023-07-20T09:03:12;5.18;;;2.90;;
10651;SDS011;5374;42.742;23.266;2023-07-20T09:06:02;11.10;;;3.20;;
10651;SDS011;5374;42.742;23.266;2023-07-20T09:08:49;9.25;;;3.13;;
10651;SDS011;5374;42.742;23.266;2023-07-20T09:11:37;4.83;;;2.93;;
10651;SDS011;5374;42.742;23.266;2023-07-20T09:14:24;7.53;;;3.22;;
10651;SDS011;5374;42.742;23.266;2023-07-20T09:17:12;12.73;;;3.50;;
10651;SDS011;5374;42.742;23.266;2023-07-20T09:20:01;7.78;;;3.25;;
10651;SDS011;5374;42.742;23.266;2023-07-20T09:22:54;9.32;;;3.20;;
10651;SDS011;5374;42.742;23.266;2023-07-20T09:25:42;9.25;;;3.20;;
10651;SDS011;5374;42.742;23.266;2023-07-20T09:28:31;75.80;;;8.27;;
10651;SDS011;5374;42.742;23.266;2023-07-20T09:31:29;11.30;;;3.30;;
10651;SDS011;5374;42.742;23.266;2023-07-20T09:34:17;12.63;;;3.55;;
10651;SDS011;5374;42.742;23.266;2023-07-20T09:37:04;14.68;;;2.90;;
10651;SDS011;5374;42.742;23.266;2023-07-20T09:39:52;10.40;;;2.90;;
10651;SDS011;5374;42.742;23.266;2023-07-20T09:42:40;9.05;;;3.25;;
10651;SDS011;5374;42.742;23.266;2023-07-20T09:45:29;10.80;;;3.15;;
10651;SDS011;5374;42.742;23.266;2023-07-20T09:48:16;9.32;;;2.70;;
10651;SDS011;5374;42.742;23.266;2023-07-20T09:51:07;8.45;;;3.03;;
10651;SDS011;5374;42.742;23.266;2023-07-20T09:53:55;7.78;;;3.03;;
10651;SDS011;5374;42.742;23.266;2023-07-20T09:56:44;11.27;;;2.90;;
10651;SDS011;5374;42.742;23.266;2023-07-20T09:59:34;6.35;;;3.17;;
10651;SDS011;5374;42.742;23.266;2023-07-20T10:02:22;6.68;;;2.72;;
10651;SDS011;5374;42.742;23.266;2023-07-20T10:05:16;10.70;;;3.20;;
10651;SDS011;5374;42.742;23.266;2023-07-20T10:08:05;8.77;;;2.90;;
10651;SDS011;5374;42.742;23.266;2023-07-20T10:10:57;6.90;;;3.22;;
10651;SDS011;5374;42.742;23.266;2023-07-20T10:13:49;7.63;;;3.00;;
10651;SDS011;5374;42.742;23.266;2023-07-20T10:16:42;8.00;;;2.90;;
10651;SDS011;5374;42.742;23.266;2023-07-20T10:19:34;5.35;;;2.60;;
10651;SDS011;5374;42.742;23.266;2023-07-20T10:22:32;6.68;;;3.20;;
10651;SDS011;5374;42.742;23.266;2023-07-20T10:25:22;13.30;;;3.80;;
10651;SDS011;5374;42.742;23.266;2023-07-20T10:28:10;20.05;;;3.67;;
10651;SDS011;5374;42.742;23.266;2023-07-20T10:30:59;25.30;;;4.73;;
10651;SDS011;5374;42.742;23.266;2023-07-20T10:33:46;11.55;;;3.88;;
10651;SDS011;5374;42.742;23.266;2023-07-20T10:36:43;15.02;;;3.72;;
10651;SDS011;5374;42.742;23.266;2023-07-20T10:39:34;13.10;;;3.60;;
10651;SDS011;5374;42.742;23.266;2023-07-20T10:42:21;9.40;;;2.80;;
10651;SDS011;5374;42.742;23.266;2023-07-20T10:45:08;6.27;;;2.77;;
10651;SDS011;5374;42.742;23.266;2023-07-20T10:47:57;7.47;;;3.20;;
10651;SDS011;5374;42.742;23.266;2023-07-20T10:50:44;12.43;;;3.80;;
10651;SDS011;5374;42.742;23.266;2023-07-20T10:53:33;7.30;;;2.80;;
10651;SDS011;5374;42.742;23.266;2023-07-20T10:56:20;10.03;;;3.70;;
10651;SDS011;5374;42.742;23.266;2023-07-20T10:59:17;8.33;;;3.10;;
10651;SDS011;5374;42.742;23.266;2023-07-20T11:02:06;7.07;;;2.90;;
10651;SDS011;5374;42.742;23.266;2023-07-20T11:04:55;4.20;;;2.37;;
10651;SDS011;5374;42.742;23.266;2023-07-20T11:07:42;9.43;;;2.80;;
10651;SDS011;5374;42.742;23.266;2023-07-20T11:10:29;10.03;;;3.73;;
10651;SDS011;5374;42.742;23.266;2023-07-20T11:13:17;9.37;;;3.40;;
10651;SDS011;5374;42.742;23.266;2023-07-20T11:16:08;6.57;;;3.30;;
10651;SDS011;5374;42.742;23.266;2023-07-20T11:18:56;8.93;;;3.23;;
10651;SDS011;5374;42.742;23.266;2023-07-20T11:21:45;11.48;;;3.70;;
10651;SDS011;5374;42.742;23.266;2023-07-20T11:24:33;12.93;;;3.60;;
10651;SDS011;5374;42.742;23.266;2023-07-20T11:27:20;5.72;;;3.05;;
10651;SDS011;5374;42.742;23.266;2023-07-20T11:30:15;10.20;;;3.00;;
10651;SDS011;5374;42.742;23.266;2023-07-20T11:33:02;7.97;;;3.70;;
10651;SDS011;5374;42.742;23.266;2023-07-20T11:35:50;11.07;;;4.07;;
10651;SDS011;5374;42.742;23.266;2023-07-20T11:38:40;8.50;;;3.42;;
10651;SDS011;5374;42.742;23.266;2023-07-20T11:41:28;6.10;;;3.08;;
10651;SDS011;5374;42.742;23.266;2023-07-20T11:44:15;11.57;;;3.63;;
10651;SDS011;5374;42.742;23.266;2023-07-20T11:47:04;13.80;;;3.63;;
10651;SDS011;5374;42.742;23.266;2023-07-20T11:49:51;12.50;;;3.30;;
10651;SDS011;5374;42.742;23.266;2023-07-20T11:52:40;8.32;;;3.30;;
10651;SDS011;5374;42.742;23.266;2023-07-20T11:55:28;17.10;;;5.00;;
10651;SDS011;5374;42.742;23.266;2023-07-20T11:58:16;6.90;;;3.13;;
10651;SDS011;5374;42.742;23.266;2023-07-20T12:01:04;9.43;;;3.25;;
10651;SDS011;5374;42.742;23.266;2023-07-20T12:03:52;19.40;;;3.87;;
10651;SDS011;5374;42.742;23.266;2023-07-20T12:06:39;10.30;;;3.67;;
10651;SDS011;5374;42.742;23.266;2023-07-20T12:09:26;11.38;;;3.40;;
10651;SDS011;5374;42.742;23.266;2023-07-20T12:12:15;13.85;;;3.75;;
10651;SDS011;5374;42.742;23.266;2023-07-20T12:18:07;8.23;;;3.60;;
10651;SDS011;5374;42.742;23.266;2023-07-20T12:20:58;8.77;;;3.50;;
10651;SDS011;5374;42.742;23.266;2023-07-20T12:23:46;10.60;;;3.53;;
10651;SDS011;5374;42.742;23.266;2023-07-20T12:26:33;62.88;;;6.55;;
10651;SDS011;5374;42.742;23.266;2023-07-20T12:29:22;19.65;;;4.18;;
10651;SDS011;5374;42.742;23.266;2023-07-20T12:32:09;11.85;;;4.25;;
10651;SDS011;5374;42.742;23.266;2023-07-20T12:34:56;8.20;;;3.25;;
10651;SDS011;5374;42.742;23.266;2023-07-20T12:37:45;10.60;;;3.33;;
10651;SDS011;5374;42.742;23.266;2023-07-20T12:40:34;12.25;;;3.55;;
10651;SDS011;5374;42.742;23.266;2023-07-20T12:43:21;16.58;;;3.78;;
10651;SDS011;5374;42.742;23.266;2023-07-20T12:46:10;9.10;;;3.17;;
10651;SDS011;5374;42.742;23.266;2023-07-20T12:48:58;26.75;;;4.88;;
10651;SDS011;5374;42.742;23.266;2023-07-20T12:51:45;9.95;;;3.30;;
10651;SDS011;5374;42.742;23.266;2023-07-20T12:54:33;12.18;;;3.67;;
10651;SDS011;5374;42.742;23.266;2023-07-20T12:57:20;11.60;;;3.53;;
10651;SDS011;5374;42.742;23.266;2023-07-20T13:00:08;11.93;;;3.95;;
10651;SDS011;5374;42.742;23.266;2023-07-20T13:02:58;11.60;;;3.40;;
10651;SDS011;5374;42.742;23.266;2023-07-20T13:05:46;11.30;;;3.73;;
10651;SDS011;5374;42.742;23.266;2023-07-20T13:08:33;19.52;;;3.70;;
10651;SDS011;5374;42.742;23.266;2023-07-20T13:11:21;23.55;;;4.25;;
10651;SDS011;5374;42.742;23.266;2023-07-20T13:14:08;10.40;;;3.73;;
10651;SDS011;5374;42.742;23.266;2023-07-20T13:16:57;16.17;;;3.53;;
10651;SDS011;5374;42.742;23.266;2023-07-20T13:19:45;10.85;;;3.50;;
10651;SDS011;5374;42.742;23.266;2023-07-20T13:22:32;13.00;;;3.65;;
10651;SDS011;5374;42.742;23.266;2023-07-20T13:25:20;8.43;;;3.20;;
10651;SDS011;5374;42.742;23.266;2023-07-20T13:28:07;12.75;;;3.45;;
10651;SDS011;5374;42.742;23.266;2023-07-20T13:30:54;15.82;;;3.83;;
10651;SDS011;5374;42.742;23.266;2023-07-20T13:33:42;9.82;;;3.15;;
10651;SDS011;5374;42.742;23.266;2023-07-20T13:36:30;6.80;;;3.47;;
10651;SDS011;5374;42.742;23.266;2023-07-20T13:39:17;15.00;;;4.03;;
10651;SDS011;5374;42.742;23.266;2023-07-20T13:42:05;13.35;;;3.53;;
10651;SDS011;5374;42.742;23.266;2023-07-20T13:44:52;13.73;;;3.15;;
10651;SDS011;5374;42.742;23.266;2023-07-20T13:47:39;10.63;;;3.20;;
10651;SDS011;5374;42.742;23.266;2023-07-20T13:50:26;9.27;;;2.97;;
10651;SDS011;5374;42.742;23.266;2023-07-20T13:53:15;6.43;;;3.10;;
10651;SDS011;5374;42.742;23.266;2023-07-20T13:56:02;10.03;;;3.20;;
10651;SDS011;5374;42.742;23.266;2023-07-20T13:58:49;13.73;;;3.20;;
10651;SDS011;5374;42.742;23.266;2023-07-20T14:01:37;11.90;;;3.20;;
10651;SDS011;5374;42.742;23.266;2023-07-20T14:04:24;10.97;;;3.17;;
10651;SDS011;5374;42.742;23.266;2023-07-20T14:07:11;9.67;;;3.63;;
10651;SDS011;5374;42.742;23.266;2023-07-20T14:10:00;7.67;;;2.73;;
10651;SDS011;5374;42.742;23.266;2023-07-20T14:12:47;6.63;;;3.00;;
10651;SDS011;5374;42.742;23.266;2023-07-20T14:15:34;6.70;;;3.10;;
10651;SDS011;5374;42.742;23.266;2023-07-20T14:18:22;9.40;;;2.77;;
10651;SDS011;5374;42.742;23.266;2023-07-20T14:21:09;12.37;;;3.50;;
10651;SDS011;5374;42.742;23.266;2023-07-20T14:23:56;13.43;;;2.93;;
10651;SDS011;5374;42.742;23.266;2023-07-20T14:26:45;15.20;;;3.00;;
10651;SDS011;5374;42.742;23.266;2023-07-20T14:29:33;11.30;;;2.80;;
10651;SDS011;5374;42.742;23.266;2023-07-20T14:32:21;34.13;;;4.30;;
10651;SDS011;5374;42.742;23.266;2023-07-20T14:35:09;14.97;;;2.97;;
10651;SDS011;5374;42.742;23.266;2023-07-20T14:37:56;11.23;;;3.00;;
10651;SDS011;5374;42.742;23.266;2023-07-20T14:40:43;11.13;;;3.40;;
10651;SDS011;5374;42.742;23.266;2023-07-20T14:43:32;8.83;;;3.50;;
10651;SDS011;5374;42.742;23.266;2023-07-20T14:46:19;8.90;;;3.37;;
10651;SDS011;5374;42.742;23.266;2023-07-20T14:49:07;7.83;;;3.10;;
10651;SDS011;5374;42.742;23.266;2023-07-20T14:51:54;9.37;;;3.17;;
10651;SDS011;5374;42.742;23.266;2023-07-20T14:54:41;13.10;;;3.50;;
10651;SDS011;5374;42.742;23.266;2023-07-20T14:57:28;8.03;;;3.07;;
10651;SDS011;5374;42.742;23.266;2023-07-20T15:00:17;8.93;;;3.30;;
10651;SDS011;5374;42.742;23.266;2023-07-20T15:03:05;11.30;;;3.37;;
10651;SDS011;5374;42.742;23.266;2023-07-20T15:05:54;7.97;;;2.87;;
10651;SDS011;5374;42.742;23.266;2023-07-20T15:08:42;17.13;;;4.37;;
10651;SDS011;5374;42.742;23.266;2023-07-20T15:11:29;10.80;;;3.47;;
10651;SDS011;5374;42.742;23.266;2023-07-20T15:14:16;6.83;;;3.53;;
10651;SDS011;5374;42.742;23.266;2023-07-20T15:17:05;5.97;;;3.30;;
10651;SDS011;5374;42.742;23.266;2023-07-20T15:19:52;7.57;;;2.90;;
10651;SDS011;5374;42.742;23.266;2023-07-20T15:22:39;8.53;;;3.33;;
10651;SDS011;5374;42.742;23.266;2023-07-20T15:25:26;9.27;;;3.10;;
10651;SDS011;5374;42.742;23.266;2023-07-20T15:28:14;7.23;;;3.20;;
10651;SDS011;5374;42.742;23.266;2023-07-20T15:31:01;7.23;;;2.83;;
10651;SDS011;5374;42.742;23.266;2023-07-20T15:33:50;5.00;;;2.60;;
10651;SDS011;5374;42.742;23.266;2023-07-20T15:36:38;8.77;;;3.03;;
10651;SDS011;5374;42.742;23.266;2023-07-20T15:39:25;6.70;;;2.90;;
10651;SDS011;5374;42.742;23.266;2023-07-20T15:42:12;6.70;;;2.90;;
10651;SDS011;5374;42.742;23.266;2023-07-20T15:44:59;6.33;;;3.00;;
10651;SDS011;5374;42.742;23.266;2023-07-20T15:47:46;5.73;;;3.00;;
10651;SDS011;5374;42.742;23.266;2023-07-20T15:50:35;8.90;;;2.93;;
10651;SDS011;5374;42.742;23.266;2023-07-20T15:53:22;7.57;;;2.50;;
10651;SDS011;5374;42.742;23.266;2023-07-20T15:56:09;4.47;;;3.00;;
10651;SDS011;5374;42.742;23.266;2023-07-20T15:58:56;15.93;;;3.47;;
10651;SDS011;5374;42.742;23.266;2023-07-20T16:01:43;8.53;;;3.10;;
10651;SDS011;5374;42.742;23.266;2023-07-20T16:04:31;5.23;;;2.57;;
10651;SDS011;5374;42.742;23.266;2023-07-20T16:07:19;5.80;;;2.90;;
10651;SDS011;5374;42.742;23.266;2023-07-20T16:10:06;5.43;;;2.80;;
10651;SDS011;5374;42.742;23.266;2023-07-20T16:12:55;7.27;;;2.40;;
10651;SDS011;5374;42.742;23.266;2023-07-20T16:15:42;6.93;;;2.50;;
10651;SDS011;5374;42.742;23.266;2023-07-20T16:18:29;6.57;;;2.80;;
10651;SDS011;5374;42.742;23.266;2023-07-20T16:21:17;4.73;;;2.30;;
10651;SDS011;5374;42.742;23.266;2023-07-20T16:24:06;4.30;;;2.33;;
10651;SDS011;5374;42.742;23.266;2023-07-20T16:26:54;8.17;;;2.43;;
10651;SDS011;5374;42.742;23.266;2023-07-20T16:29:41;4.77;;;2.60;;
10651;SDS011;5374;42.742;23.266;2023-07-20T16:32:28;5.00;;;2.73;;
10651;SDS011;5374;42.742;23.266;2023-07-20T16:35:15;17.30;;;3.40;;
10651;SDS011;5374;42.742;23.266;2023-07-20T16:38:04;11.23;;;3.00;;
10651;SDS011;5374;42.742;23.266;2023-07-20T16:40:56;7.93;;;2.83;;
10651;SDS011;5374;42.742;23.266;2023-07-20T16:43:43;6.60;;;3.03;;
10651;SDS011;5374;42.742;23.266;2023-07-20T16:46:30;9.97;;;3.03;;
10651;SDS011;5374;42.742;23.266;2023-07-20T16:49:19;6.13;;;2.90;;